Time;durP1;ratioP1;P1;durP2;ratioP2;P2;SDS_P1;SDS_P2;PMS_P1;PMS_P2;Temp;Humidity;BMP_temperature;BMP_pressure;BME280_temperature;BME280_humidity;BME280_pressure;Samples;Min_cycle;Max_cycle;Signal;HPM_P1;HPM_P2
2023/06/13 00:00:33;;;;;;;10.63;7.80;;;12.90;77.60;;;;;;5013335;28;20184;-86
2023/06/13 00:02:59;;;;;;;14.17;7.87;;;12.80;77.60;;;;;;5013245;28;20276;-87
2023/06/13 00:05:25;;;;;;;8.70;7.90;;;12.80;77.50;;;;;;5013351;28;20570;-87
2023/06/13 00:07:51;;;;;;;8.83;7.83;;;12.80;77.00;;;;;;5013188;28;20199;-86
2023/06/13 00:10:16;;;;;;;8.60;7.93;;;12.80;76.90;;;;;;5014817;28;20180;-86
2023/06/13 00:12:44;;;;;;;12.07;7.90;;;12.80;76.70;;;;;;5013059;28;20231;-86
2023/06/13 00:15:11;;;;;;;9.37;8.47;;;12.80;76.30;;;;;;5012585;28;20201;-86
2023/06/13 00:17:38;;;;;;;11.73;7.57;;;12.80;76.60;;;;;;5012961;28;20193;-87
2023/06/13 00:20:07;;;;;;;10.97;7.47;;;12.80;76.50;;;;;;5014351;28;20177;-87
2023/06/13 00:22:33;;;;;;;8.30;7.60;;;12.80;76.20;;;;;;5012952;28;20216;-87
2023/06/13 00:24:58;;;;;;;7.83;7.03;;;12.70;75.60;;;;;;5013092;28;20177;-87
2023/06/13 00:27:24;;;;;;;9.83;7.87;;;12.80;75.40;;;;;;5013015;28;20177;-87
2023/06/13 00:29:49;;;;;;;10.13;8.10;;;12.70;75.00;;;;;;5013027;28;20272;-88
2023/06/13 00:32:17;;;;;;;9.00;8.23;;;12.70;74.90;;;;;;5013308;28;20193;-88
2023/06/13 00:34:43;;;;;;;11.90;8.93;;;12.70;74.30;;;;;;5012662;28;20265;-88
2023/06/13 00:37:09;;;;;;;9.00;8.20;;;12.70;73.40;;;;;;5012718;28;20647;-87
2023/06/13 00:39:36;;;;;;;9.63;8.63;;;12.70;73.00;;;;;;5012600;28;20177;-87
2023/06/13 00:42:02;;;;;;;9.47;8.70;;;12.70;72.70;;;;;;5012530;28;20209;-87
2023/06/13 00:44:27;;;;;;;10.17;9.33;;;12.70;72.30;;;;;;5012489;28;20264;-86
2023/06/13 00:46:53;;;;;;;13.53;8.80;;;12.70;72.30;;;;;;5012516;28;20599;-87
2023/06/13 00:49:19;;;;;;;9.80;9.10;;;12.60;72.30;;;;;;5012622;28;20196;-86
2023/06/13 00:51:45;;;;;;;10.00;9.00;;;12.60;72.40;;;;;;5012437;28;20204;-86
2023/06/13 00:54:16;;;;;;;9.60;8.90;;;12.50;72.30;;;;;;5012777;28;20169;-87
2023/06/13 00:56:44;;;;;;;10.20;9.30;;;12.50;71.90;;;;;;5012465;28;20170;-86
2023/06/13 00:59:12;;;;;;;9.80;8.80;;;12.40;71.80;;;;;;5013611;28;20522;-86
2023/06/13 01:01:40;;;;;;;10.00;9.10;;;12.40;71.90;;;;;;5013446;28;20208;-86
2023/06/13 01:04:07;;;;;;;9.07;8.17;;;12.30;71.70;;;;;;5012362;28;20260;-86
2023/06/13 01:06:34;;;;;;;9.70;8.97;;;12.30;72.00;;;;;;5012305;28;20260;-87
2023/06/13 01:09:05;;;;;;;9.33;8.63;;;12.20;72.50;;;;;;5012451;28;20173;-86
2023/06/13 01:11:52;;;;;;;9.73;8.83;;;12.00;73.20;;;;;;5013640;28;20158;-86
2023/06/13 01:14:48;;;;;;;11.13;9.23;;;12.00;73.40;;;;;;5013713;28;20153;-86
2023/06/13 01:17:33;;;;;;;10.43;9.10;;;12.00;73.70;;;;;;5012726;28;20189;-86
2023/06/13 01:20:13;;;;;;;9.23;8.43;;;11.90;74.10;;;;;;5013303;28;20192;-86
2023/06/13 01:23:16;;;;;;;9.77;8.87;;;11.80;74.80;;;;;;5013836;28;20240;-86
2023/06/13 01:26:02;;;;;;;9.20;8.50;;;11.80;75.30;;;;;;5012128;28;20275;-86
2023/06/13 01:28:32;;;;;;;9.17;8.37;;;11.90;75.40;;;;;;5015567;28;20650;-86
2023/06/13 01:30:58;;;;;;;8.80;8.00;;;12.00;75.20;;;;;;5016100;28;20180;-87
2023/06/13 01:33:25;;;;;;;9.87;9.27;;;12.10;74.80;;;;;;5016059;28;20212;-87
2023/06/13 01:35:51;;;;;;;10.17;9.33;;;12.10;74.80;;;;;;5015892;28;20185;-87
2023/06/13 01:38:17;;;;;;;11.10;9.77;;;12.20;75.00;;;;;;5017618;28;20644;-86
2023/06/13 01:40:43;;;;;;;11.60;9.23;;;12.10;75.30;;;;;;5016168;28;20188;-86
2023/06/13 01:43:08;;;;;;;10.30;8.47;;;12.10;75.40;;;;;;5016416;28;20198;-86
2023/06/13 01:45:34;;;;;;;11.73;8.77;;;12.20;75.60;;;;;;5016436;28;20180;-86
2023/06/13 01:48:30;;;;;;;9.57;8.87;;;12.20;75.80;;;;;;5016475;28;20644;-87
2023/06/13 01:51:35;;;;;;;10.37;9.17;;;12.20;76.00;;;;;;5016744;28;20265;-86
2023/06/13 01:54:06;;;;;;;9.03;7.20;;;12.20;76.40;;;;;;4998951;28;20193;-86
2023/06/13 01:56:33;;;;;;;9.53;7.83;;;12.10;76.50;;;;;;5015742;28;20715;-86
2023/06/13 01:59:06;;;;;;;8.77;8.07;;;12.00;76.80;;;;;;5016472;28;20551;-86
2023/06/13 02:01:35;;;;;;;9.43;8.33;;;11.90;77.10;;;;;;5016185;28;20217;-86
2023/06/13 02:04:01;;;;;;;11.30;7.77;;;11.90;77.30;;;;;;5017135;28;20192;-86
2023/06/13 02:06:28;;;;;;;10.43;8.80;;;11.80;77.40;;;;;;5016071;28;20179;-87
2023/06/13 02:08:55;;;;;;;9.13;7.63;;;11.70;77.40;;;;;;5016262;28;20165;-86
2023/06/13 02:11:21;;;;;;;10.03;7.93;;;11.70;77.20;;;;;;5016301;28;20235;-86
2023/06/13 02:13:47;;;;;;;8.30;7.37;;;11.60;77.40;;;;;;5016230;28;20201;-86
2023/06/13 02:16:14;;;;;;;8.70;7.90;;;11.50;77.50;;;;;;5017304;28;20181;-86
2023/06/13 02:18:39;;;;;;;10.57;7.23;;;11.40;77.50;;;;;;5015867;28;20190;-86
2023/06/13 02:21:06;;;;;;;8.60;7.83;;;11.40;77.60;;;;;;5015936;28;20255;-86
2023/06/13 02:23:31;;;;;;;8.20;7.50;;;11.30;77.60;;;;;;5017058;28;20284;-86
2023/06/13 02:25:57;;;;;;;8.67;7.77;;;11.30;77.60;;;;;;5016664;28;20209;-86
2023/06/13 02:28:23;;;;;;;9.77;7.53;;;11.40;77.70;;;;;;5016052;28;20659;-86
2023/06/13 02:30:48;;;;;;;9.03;7.20;;;11.30;77.70;;;;;;5015647;28;20323;-86
2023/06/13 02:33:15;;;;;;;8.63;7.93;;;11.30;78.00;;;;;;5015153;28;20616;-86
2023/06/13 02:35:45;;;;;;;8.03;6.97;;;11.30;78.10;;;;;;5015437;28;20566;-86
2023/06/13 02:38:11;;;;;;;9.53;7.30;;;11.30;78.10;;;;;;5015008;28;20169;-86
2023/06/13 02:40:40;;;;;;;9.70;7.67;;;11.30;78.00;;;;;;5016990;28;20178;-86
2023/06/13 02:43:05;;;;;;;9.63;7.70;;;11.40;77.80;;;;;;5015312;28;20197;-86
2023/06/13 02:45:31;;;;;;;14.30;10.20;;;11.30;77.80;;;;;;5015221;28;20187;-86
2023/06/13 02:47:57;;;;;;;12.50;8.47;;;11.30;77.80;;;;;;5015219;28;20654;-86
2023/06/13 02:50:23;;;;;;;8.60;7.83;;;11.20;78.00;;;;;;5016191;28;20174;-86
2023/06/13 02:52:49;;;;;;;8.57;7.63;;;11.20;78.30;;;;;;5015863;28;20702;-86
2023/06/13 02:55:14;;;;;;;8.17;7.57;;;11.20;78.80;;;;;;5014897;28;20208;-86
2023/06/13 02:57:41;;;;;;;12.47;7.83;;;11.10;78.90;;;;;;5016058;28;20181;-86
2023/06/13 03:00:09;;;;;;;8.77;8.07;;;11.00;79.20;;;;;;5014837;28;20208;-86
2023/06/13 03:02:36;;;;;;;8.60;7.90;;;10.90;79.60;;;;;;5014622;28;20687;-86
2023/06/13 03:05:18;;;;;;;10.03;7.70;;;10.90;80.30;;;;;;5015630;28;20177;-86
2023/06/13 03:07:47;;;;;;;8.73;7.63;;;11.10;80.50;;;;;;5014509;28;20180;-86
2023/06/13 03:10:15;;;;;;;10.37;8.43;;;11.30;80.50;;;;;;5015889;28;20169;-86
2023/06/13 03:12:41;;;;;;;10.33;8.40;;;11.50;80.20;;;;;;5015457;28;20197;-86
2023/06/13 03:15:07;;;;;;;11.23;8.30;;;11.70;79.80;;;;;;5014636;28;20188;-86
2023/06/13 03:17:33;;;;;;;9.00;8.17;;;11.70;79.60;;;;;;5014305;28;20193;-86
2023/06/13 03:19:59;;;;;;;9.90;8.70;;;11.70;79.70;;;;;;5014298;28;20185;-86
2023/06/13 03:22:24;;;;;;;9.20;8.40;;;11.60;80.30;;;;;;5015441;28;20697;-86
2023/06/13 03:24:50;;;;;;;10.40;8.77;;;11.50;81.00;;;;;;5014267;28;20181;-86
2023/06/13 03:27:16;;;;;;;9.73;8.33;;;11.30;81.80;;;;;;5014005;28;20181;-86
2023/06/13 03:29:42;;;;;;;8.93;8.13;;;11.30;82.50;;;;;;5014009;28;20224;-86
2023/06/13 03:32:09;;;;;;;9.10;8.27;;;11.10;83.20;;;;;;5013814;28;20236;-86
2023/06/13 03:34:38;;;;;;;9.07;8.07;;;11.10;83.80;;;;;;5014000;28;20181;-86
2023/06/13 03:37:08;;;;;;;19.30;8.43;;;11.10;84.20;;;;;;5013874;28;20177;-86
2023/06/13 03:39:33;;;;;;;11.47;7.80;;;11.10;84.70;;;;;;5015265;28;20193;-86
2023/06/13 03:42:00;;;;;;;8.50;7.17;;;11.10;85.10;;;;;;5013848;28;20648;-86
2023/06/13 03:44:26;;;;;;;11.00;7.77;;;11.20;85.30;;;;;;5013861;28;20181;-86
2023/06/13 03:46:53;;;;;;;11.13;7.13;;;11.30;85.50;;;;;;5014897;28;20177;-86
2023/06/13 03:49:18;;;;;;;11.17;7.10;;;11.30;85.70;;;;;;5014233;28;20205;-86
2023/06/13 03:51:44;;;;;;;12.03;7.83;;;11.40;85.80;;;;;;5012724;28;20181;-86
2023/06/13 03:54:10;;;;;;;12.07;7.33;;;11.50;86.10;;;;;;5013973;28;20549;-86
2023/06/13 03:56:35;;;;;;;7.20;6.50;;;11.50;86.20;;;;;;5013607;28;20554;-86
2023/06/13 03:59:01;;;;;;;11.30;7.00;;;11.50;86.50;;;;;;5015865;28;20192;-86
2023/06/13 04:01:28;;;;;;;10.00;6.80;;;11.50;86.70;;;;;;5013532;28;20292;-86
2023/06/13 04:03:54;;;;;;;10.43;7.23;;;11.60;86.80;;;;;;5014809;28;20194;-86
2023/06/13 04:06:19;;;;;;;10.87;7.70;;;11.70;86.90;;;;;;5014603;28;20177;-85
2023/06/13 04:08:45;;;;;;;11.33;8.23;;;11.70;86.90;;;;;;5013436;28;20666;-86
2023/06/13 04:11:10;;;;;;;8.40;6.97;;;11.80;86.80;;;;;;5013512;28;20605;-86
2023/06/13 04:13:36;;;;;;;15.37;10.70;;;11.90;86.80;;;;;;5013234;28;20296;-86
2023/06/13 04:16:02;;;;;;;9.97;6.87;;;11.90;86.80;;;;;;5014764;28;20185;-86
2023/06/13 04:18:28;;;;;;;9.80;7.57;;;12.10;86.70;;;;;;5014409;28;20599;-86
2023/06/13 04:20:53;;;;;;;10.10;7.10;;;12.10;86.70;;;;;;5013187;28;20667;-86
2023/06/13 04:23:20;;;;;;;11.37;6.97;;;12.20;86.60;;;;;;5013014;28;20206;-86
2023/06/13 04:25:45;;;;;;;9.23;6.73;;;12.30;86.60;;;;;;5013232;28;20181;-85
2023/06/13 04:28:13;;;;;;;9.80;6.07;;;12.30;86.60;;;;;;5013371;28;20231;-86
2023/06/13 04:30:40;;;;;;;10.23;5.97;;;12.40;86.60;;;;;;5013257;28;20679;-86
2023/06/13 04:33:13;;;;;;;13.60;6.27;;;12.50;86.60;;;;;;5013097;28;20217;-86
2023/06/13 04:35:44;;;;;;;9.07;5.60;;;12.60;86.50;;;;;;5013147;28;20165;-86
2023/06/13 04:38:14;;;;;;;9.93;5.70;;;12.70;86.30;;;;;;5013189;28;20687;-86
2023/06/13 04:40:40;;;;;;;7.40;5.80;;;12.80;86.10;;;;;;5014384;28;20161;-86
2023/06/13 04:43:05;;;;;;;9.60;5.83;;;12.80;86.00;;;;;;5012740;28;20698;-85
2023/06/13 04:45:32;;;;;;;6.70;5.70;;;13.00;85.90;;;;;;5013045;28;20181;-86
2023/06/13 04:48:01;;;;;;;9.33;5.50;;;13.00;85.70;;;;;;5014116;28;20588;-85
2023/06/13 04:50:28;;;;;;;8.40;5.13;;;13.00;85.40;;;;;;5012878;28;20624;-86
2023/06/13 04:52:57;;;;;;;8.57;5.57;;;13.20;85.40;;;;;;5013858;28;20196;-86
2023/06/13 04:55:25;;;;;;;13.60;6.37;;;13.20;85.10;;;;;;5012754;28;20177;-85
2023/06/13 04:57:51;;;;;;;7.40;5.80;;;13.30;85.00;;;;;;5012936;28;20185;-86
2023/06/13 05:00:18;;;;;;;9.27;5.77;;;13.40;85.10;;;;;;5013915;28;20204;-86
2023/06/13 05:02:45;;;;;;;9.47;5.20;;;13.50;85.10;;;;;;5012218;28;20633;-86
2023/06/13 05:05:10;;;;;;;7.87;5.60;;;13.50;84.80;;;;;;5013687;28;20187;-85
2023/06/13 05:07:39;;;;;;;10.90;6.13;;;13.60;84.70;;;;;;5012588;28;20647;-86
2023/06/13 05:10:05;;;;;;;9.83;5.23;;;13.70;84.30;;;;;;5012832;28;20268;-86
2023/06/13 05:12:30;;;;;;;10.10;5.67;;;13.80;84.10;;;;;;5012851;28;20193;-86
2023/06/13 05:14:56;;;;;;;12.53;5.40;;;13.80;83.80;;;;;;5012598;28;20189;-85
2023/06/13 05:17:22;;;;;;;8.73;5.43;;;13.90;83.90;;;;;;5012616;28;20181;-86
2023/06/13 05:19:48;;;;;;;12.13;5.90;;;14.00;83.90;;;;;;5012502;28;20263;-86
2023/06/13 05:22:15;;;;;;;6.67;5.67;;;14.10;83.60;;;;;;5012244;28;20205;-85
2023/06/13 05:24:40;;;;;;;9.83;5.80;;;14.20;83.10;;;;;;5013640;28;20169;-86
2023/06/13 05:27:06;;;;;;;6.10;5.50;;;14.30;82.90;;;;;;5012596;28;20200;-85
2023/06/13 05:29:31;;;;;;;11.00;5.60;;;14.30;82.70;;;;;;5012453;28;20201;-86
2023/06/13 05:32:00;;;;;;;8.10;5.73;;;14.50;82.30;;;;;;5012361;28;20239;-86
2023/06/13 05:34:26;;;;;;;7.93;5.93;;;14.60;82.00;;;;;;5013905;28;20254;-85
2023/06/13 05:36:52;;;;;;;9.10;5.53;;;14.70;81.70;;;;;;5012320;28;20187;-85
2023/06/13 05:39:18;;;;;;;10.63;5.90;;;14.90;81.60;;;;;;5012376;28;20268;-86
2023/06/13 05:41:43;;;;;;;6.20;5.60;;;15.00;81.20;;;;;;5011979;28;20201;-85
2023/06/13 05:44:09;;;;;;;7.53;5.77;;;15.00;80.90;;;;;;5012171;28;20182;-85
2023/06/13 05:46:34;;;;;;;6.17;5.40;;;15.10;80.80;;;;;;5013650;28;20181;-86
2023/06/13 05:49:00;;;;;;;7.33;5.60;;;15.20;80.20;;;;;;5013514;28;20174;-86
2023/06/13 05:51:25;;;;;;;9.67;6.10;;;15.20;79.90;;;;;;5013569;28;20181;-86
2023/06/13 05:53:51;;;;;;;6.13;5.53;;;15.30;79.70;;;;;;5013164;28;20208;-86
2023/06/13 05:56:17;;;;;;;12.80;5.90;;;15.40;79.30;;;;;;5012177;28;20339;-86
2023/06/13 05:58:44;;;;;;;6.07;4.83;;;15.40;79.00;;;;;;5012540;28;20288;-85
2023/06/13 06:01:12;;;;;;;7.93;5.60;;;15.60;79.30;;;;;;5012173;28;20589;-85
2023/06/13 06:03:38;;;;;;;9.70;5.57;;;15.60;78.80;;;;;;5012201;28;20263;-85
2023/06/13 06:06:03;;;;;;;9.40;5.87;;;15.70;78.30;;;;;;5013531;28;20177;-88
2023/06/13 06:08:29;;;;;;;9.47;5.60;;;15.80;77.90;;;;;;5013392;28;20174;-87
2023/06/13 06:10:54;;;;;;;6.50;5.40;;;15.90;77.20;;;;;;5013140;28;20651;-87
2023/06/13 06:13:20;;;;;;;7.10;5.57;;;16.00;76.00;;;;;;5012027;28;20190;-87
2023/06/13 06:15:46;;;;;;;8.33;5.80;;;16.00;75.50;;;;;;5015417;28;20212;-86
2023/06/13 06:18:11;;;;;;;9.73;7.87;;;16.00;75.00;;;;;;5015164;28;20254;-87
2023/06/13 06:20:37;;;;;;;7.47;6.70;;;16.00;74.80;;;;;;5015201;28;20180;-87
2023/06/13 06:23:03;;;;;;;9.07;6.57;;;16.10;74.40;;;;;;5015112;28;20267;-87
2023/06/13 06:25:28;;;;;;;8.05;7.35;;;16.20;73.90;;;;;;5016365;28;20192;-87
2023/06/13 06:27:55;;;;;;;6.88;6.13;;;16.30;74.40;;;;;;5015926;28;20654;-87
2023/06/13 06:30:20;;;;;;;8.82;6.93;;;16.50;73.80;;;;;;5015089;28;20631;-87
2023/06/13 06:32:47;;;;;;;8.38;6.97;;;16.60;72.50;;;;;;5015061;28;20193;-87
2023/06/13 06:35:16;;;;;;;8.07;7.30;;;16.70;71.10;;;;;;5014902;28;20280;-87
2023/06/13 06:37:43;;;;;;;11.10;8.43;;;16.70;70.90;;;;;;5014987;28;20214;-87
2023/06/13 06:40:09;;;;;;;9.30;8.50;;;16.80;70.40;;;;;;5015080;28;20181;-87
2023/06/13 06:42:35;;;;;;;10.68;9.68;;;17.00;69.30;;;;;;5016075;28;20213;-86
2023/06/13 06:45:01;;;;;;;11.40;10.20;;;17.00;68.20;;;;;;5014894;28;20177;-86
2023/06/13 06:47:27;;;;;;;11.68;10.10;;;17.10;67.80;;;;;;5014821;28;20231;-86
2023/06/13 06:49:53;;;;;;;12.82;11.57;;;17.30;67.30;;;;;;5014932;28;20169;-85
2023/06/13 06:52:18;;;;;;;11.25;10.35;;;17.30;66.20;;;;;;5014682;28;20251;-86
2023/06/13 06:54:44;;;;;;;13.07;11.02;;;17.30;65.10;;;;;;5014746;28;20223;-87
2023/06/13 06:57:10;;;;;;;12.07;10.02;;;17.40;65.00;;;;;;5014645;28;20273;-87
2023/06/13 06:59:35;;;;;;;11.32;10.32;;;17.50;64.50;;;;;;5014494;28;20184;-87
2023/06/13 07:02:01;;;;;;;11.75;10.55;;;17.70;63.40;;;;;;5015836;28;20244;-86
2023/06/13 07:04:26;;;;;;;11.55;10.40;;;17.90;62.60;;;;;;5014860;28;20260;-87
2023/06/13 07:06:52;;;;;;;10.45;9.65;;;17.90;61.40;;;;;;5014425;28;20658;-86
2023/06/13 07:09:17;;;;;;;12.27;11.05;;;17.90;61.90;;;;;;5014644;28;20174;-86
2023/06/13 07:11:43;;;;;;;12.70;11.48;;;18.00;59.60;;;;;;5015549;28;20264;-86
2023/06/13 07:14:08;;;;;;;12.05;11.10;;;18.10;59.90;;;;;;5014680;28;20196;-87
2023/06/13 07:16:34;;;;;;;11.88;10.75;;;18.20;60.00;;;;;;5014299;28;20351;-88
2023/06/13 07:18:59;;;;;;;16.52;14.90;;;18.30;60.20;;;;;;5014411;28;20189;-87
2023/06/13 07:21:25;;;;;;;25.95;17.42;;;18.30;58.70;;;;;;5014161;28;20296;-87
2023/06/13 07:23:51;;;;;;;19.80;18.05;;;18.40;59.20;;;;;;5015463;28;20244;-87
2023/06/13 07:26:17;;;;;;;19.98;18.02;;;18.40;59.40;;;;;;5014312;28;20244;-88
2023/06/13 07:28:42;;;;;;;19.95;18.48;;;18.50;59.20;;;;;;5014200;28;20173;-87
2023/06/13 07:31:08;;;;;;;20.33;18.83;;;18.60;59.10;;;;;;5014114;28;20177;-87
2023/06/13 07:33:33;;;;;;;20.52;18.77;;;18.70;59.30;;;;;;5015172;28;20197;-87
2023/06/13 07:36:00;;;;;;;20.05;18.58;;;18.70;59.10;;;;;;5014355;28;20648;-88
2023/06/13 07:38:26;;;;;;;20.48;18.75;;;18.80;58.80;;;;;;5014064;28;20185;-87
2023/06/13 07:40:51;;;;;;;18.38;16.73;;;18.90;57.90;;;;;;5014159;28;20187;-88
2023/06/13 07:43:18;;;;;;;16.70;15.00;;;18.90;59.30;;;;;;5015088;28;20659;-87
2023/06/13 07:45:43;;;;;;;16.02;14.70;;;18.90;59.00;;;;;;5013960;28;20182;-87
2023/06/13 07:48:09;;;;;;;13.00;10.90;;;19.00;59.60;;;;;;5015221;28;20642;-87
2023/06/13 07:50:34;;;;;;;11.77;10.82;;;19.20;60.90;;;;;;5014468;28;20173;-88
2023/06/13 07:53:00;;;;;;;13.80;11.93;;;19.40;59.60;;;;;;5013884;28;20194;-87
2023/06/13 07:55:26;;;;;;;13.40;12.18;;;19.50;55.70;;;;;;5014252;28;20526;-87
2023/06/13 07:57:52;;;;;;;12.80;11.80;;;19.40;53.90;;;;;;5014046;28;20677;-86
2023/06/13 08:00:17;;;;;;;12.90;11.90;;;19.30;54.60;;;;;;5014899;28;20224;-87
2023/06/13 08:02:46;;;;;;;13.68;12.60;;;19.50;56.80;;;;;;5015027;28;20213;-85
2023/06/13 08:05:13;;;;;;;13.45;12.10;;;19.60;55.60;;;;;;5013717;28;20177;-88
2023/06/13 08:07:39;;;;;;;13.63;12.48;;;19.60;54.90;;;;;;5013571;28;20235;-88
2023/06/13 08:10:06;;;;;;;13.60;12.70;;;19.60;55.00;;;;;;5015238;28;20177;-87
2023/06/13 08:12:31;;;;;;;14.18;12.40;;;19.70;56.20;;;;;;5013469;28;20197;-86
2023/06/13 08:14:57;;;;;;;14.07;12.75;;;19.70;54.20;;;;;;5014448;28;20556;-87
2023/06/13 08:17:24;;;;;;;17.35;12.13;;;19.70;55.80;;;;;;5014306;28;20228;-87
2023/06/13 08:19:50;;;;;;;14.10;13.07;;;19.90;53.90;;;;;;5013501;28;20181;-88
2023/06/13 08:22:17;;;;;;;13.20;12.27;;;19.90;54.40;;;;;;5012917;28;20715;-88
2023/06/13 08:24:42;;;;;;;13.60;12.50;;;20.00;55.80;;;;;;5014193;28;20166;-88
2023/06/13 08:27:10;;;;;;;14.02;12.88;;;20.00;54.10;;;;;;5013070;28;20177;-87
2023/06/13 08:29:35;;;;;;;15.80;12.68;;;20.30;56.00;;;;;;5014071;28;20177;-88
2023/06/13 08:32:01;;;;;;;14.93;13.10;;;20.30;54.40;;;;;;5012822;28;20272;-87
2023/06/13 08:34:27;;;;;;;13.63;12.00;;;20.30;54.30;;;;;;5014107;28;20184;-87
2023/06/13 08:36:52;;;;;;;13.40;12.40;;;20.40;54.20;;;;;;5012307;28;20184;-87
2023/06/13 08:39:20;;;;;;;13.30;12.27;;;20.50;53.50;;;;;;5013960;28;20644;-87
2023/06/13 08:41:46;;;;;;;14.02;12.90;;;20.40;53.70;;;;;;5014064;28;20308;-87
2023/06/13 08:44:12;;;;;;;14.00;12.88;;;20.50;54.00;;;;;;5013521;28;20264;-88
2023/06/13 08:46:37;;;;;;;13.38;12.23;;;20.60;52.00;;;;;;5013861;28;20267;-88
2023/06/13 08:49:03;;;;;;;13.90;12.52;;;20.80;51.80;;;;;;5013869;28;20170;-88
2023/06/13 08:51:30;;;;;;;12.93;11.63;;;20.90;51.20;;;;;;5012628;28;20173;-87
2023/06/13 08:54:00;;;;;;;13.20;12.20;;;21.00;47.40;;;;;;5013967;28;20582;-88
2023/06/13 08:56:28;;;;;;;16.85;12.82;;;20.90;49.60;;;;;;5012503;28;20283;-87
2023/06/13 08:59:10;;;;;;;13.00;11.77;;;20.90;50.30;;;;;;5013697;28;20169;-87
2023/06/13 09:01:40;;;;;;;12.63;11.35;;;21.20;49.60;;;;;;5012410;28;20204;-87
2023/06/13 09:04:11;;;;;;;21.60;12.38;;;21.20;48.60;;;;;;5012321;28;20212;-87
2023/06/13 09:06:38;;;;;;;13.43;12.07;;;21.30;48.70;;;;;;5013571;28;20612;-85
2023/06/13 09:09:06;;;;;;;13.00;11.73;;;21.20;49.30;;;;;;5013560;28;20172;-87
2023/06/13 09:11:36;;;;;;;13.43;12.15;;;21.20;48.90;;;;;;5012264;28;20173;-88
2023/06/13 09:14:06;;;;;;;17.48;12.32;;;21.30;50.50;;;;;;5012262;28;20297;-87
2023/06/13 09:16:32;;;;;;;13.48;12.25;;;21.50;50.00;;;;;;5012164;28;20215;-86
2023/06/13 09:18:59;;;;;;;13.25;12.02;;;21.50;50.40;;;;;;5013552;28;20189;-86
2023/06/13 09:21:25;;;;;;;13.60;12.50;;;21.40;51.00;;;;;;5012061;28;20713;-87
2023/06/13 09:23:54;;;;;;;14.10;12.02;;;21.70;51.80;;;;;;5012140;28;20581;-87
2023/06/13 09:26:20;;;;;;;12.48;11.68;;;21.80;51.40;;;;;;5013346;28;20257;-86
2023/06/13 09:28:48;;;;;;;14.02;12.50;;;21.90;51.30;;;;;;5012273;28;20663;-87
2023/06/13 09:31:14;;;;;;;13.15;12.05;;;22.20;51.20;;;;;;5012042;28;20184;-87
2023/06/13 09:33:45;;;;;;;12.82;12.00;;;22.20;51.70;;;;;;5012131;28;20667;-86
2023/06/13 09:36:11;;;;;;;13.82;12.40;;;22.20;50.30;;;;;;5012639;28;20654;-87
2023/06/13 09:38:41;;;;;;;13.73;12.10;;;22.20;51.50;;;;;;5013446;28;20181;-87
2023/06/13 09:41:10;;;;;;;13.88;12.18;;;22.20;49.60;;;;;;5012246;28;20690;-87
2023/06/13 09:43:38;;;;;;;13.25;12.05;;;22.20;50.40;;;;;;5012406;28;20189;-88
2023/06/13 09:46:03;;;;;;;14.02;12.77;;;22.30;49.20;;;;;;5013250;28;20173;-85
2023/06/13 09:48:29;;;;;;;13.38;12.15;;;22.20;49.90;;;;;;5013849;28;20170;-85
2023/06/13 09:50:55;;;;;;;13.65;12.25;;;22.30;47.70;;;;;;5015891;28;20180;-86
2023/06/13 09:53:21;;;;;;;13.75;12.30;;;22.50;49.70;;;;;;5016035;28;20193;-87
2023/06/13 09:55:51;;;;;;;13.90;11.27;;;22.60;51.10;;;;;;5015835;28;20174;-87
2023/06/13 09:58:17;;;;;;;13.10;12.10;;;22.70;48.50;;;;;;5016817;28;20165;-87
2023/06/13 10:00:42;;;;;;;13.48;11.88;;;22.90;50.50;;;;;;5015667;28;20658;-86
2023/06/13 10:03:08;;;;;;;12.32;11.43;;;22.90;49.60;;;;;;5016957;28;20206;-85
2023/06/13 10:05:34;;;;;;;13.68;12.35;;;23.00;47.40;;;;;;5015548;28;20264;-87
2023/06/13 10:07:59;;;;;;;12.50;11.60;;;23.00;47.60;;;;;;5017073;28;20166;-87
2023/06/13 10:10:25;;;;;;;13.45;12.07;;;23.20;48.60;;;;;;5016039;28;20303;-87
2023/06/13 10:12:57;;;;;;;14.77;11.18;;;23.30;47.80;;;;;;5016065;28;20197;-87
2023/06/13 10:15:34;;;;;;;12.82;11.50;;;23.20;45.10;;;;;;5016615;28;20173;-87
2023/06/13 10:18:05;;;;;;;12.27;11.38;;;23.20;47.00;;;;;;5016509;28;20304;-88
2023/06/13 10:20:31;;;;;;;12.30;11.38;;;23.50;46.90;;;;;;5016327;28;20549;-87
2023/06/13 10:22:57;;;;;;;12.65;11.68;;;23.60;44.70;;;;;;5015958;28;20209;-87
2023/06/13 10:25:27;;;;;;;12.98;11.77;;;23.60;44.70;;;;;;5015828;28;20300;-89
2023/06/13 10:27:55;;;;;;;12.40;11.50;;;23.70;45.90;;;;;;5016600;28;20174;-89
2023/06/13 10:30:32;;;;;;;12.70;11.57;;;23.50;45.40;;;;;;5016747;28;20181;-88
2023/06/13 10:33:32;;;;;;;13.40;12.05;;;23.40;44.00;;;;;;5017179;28;20679;-90
2023/06/13 10:36:14;;;;;;;13.13;12.02;;;23.50;45.20;;;;;;5016198;28;20178;-89
2023/06/13 10:39:03;;;;;;;12.65;11.65;;;23.60;45.80;;;;;;5015919;28;20174;-88
2023/06/13 10:41:47;;;;;;;12.60;11.45;;;23.80;46.30;;;;;;5016180;28;20588;-89
2023/06/13 10:44:36;;;;;;;12.68;11.65;;;23.70;45.10;;;;;;5017261;28;20223;-88
2023/06/13 10:47:01;;;;;;;12.95;11.70;;;23.90;47.00;;;;;;5016415;28;20651;-85
2023/06/13 10:49:41;;;;;;;13.65;12.45;;;24.10;44.70;;;;;;5016700;28;20268;-87
2023/06/13 10:52:11;;;;;;;13.70;12.25;;;24.10;43.90;;;;;;5014773;28;20675;-86
2023/06/13 10:54:37;;;;;;;13.20;12.27;;;24.20;45.10;;;;;;5015757;28;20181;-90
2023/06/13 10:57:04;;;;;;;13.60;12.30;;;24.30;41.80;;;;;;5015243;28;20180;-90
2023/06/13 10:59:37;;;;;;;13.77;12.77;;;24.20;43.30;;;;;;5014693;28;20272;-92
2023/06/13 11:02:04;;;;;;;13.65;12.48;;;24.20;42.00;;;;;;5015115;28;20213;-90
2023/06/13 11:04:31;;;;;;;12.95;11.95;;;24.30;41.20;;;;;;5015227;28;20199;-90
2023/06/13 11:07:25;;;;;;;14.60;12.02;;;24.40;42.10;;;;;;5016892;28;20197;-91
2023/06/13 11:10:08;;;;;;;14.15;12.82;;;24.50;39.90;;;;;;5017370;28;20364;-90
2023/06/13 11:12:34;;;;;;;13.80;12.18;;;24.50;39.80;;;;;;5016971;28;20272;-90
2023/06/13 11:15:00;;;;;;;13.82;12.88;;;24.30;38.10;;;;;;5016263;28;20190;-87
2023/06/13 11:17:26;;;;;;;13.68;12.68;;;24.30;37.70;;;;;;5015828;28;20277;-88
2023/06/13 11:19:55;;;;;;;15.25;13.73;;;24.30;38.90;;;;;;5017223;28;20184;-89
2023/06/13 11:22:21;;;;;;;13.30;12.15;;;24.30;40.10;;;;;;5016703;28;20228;-88
2023/06/13 11:24:48;;;;;;;14.13;12.70;;;24.40;41.10;;;;;;5017911;28;20170;-89
2023/06/13 11:27:16;;;;;;;14.02;12.68;;;24.70;41.50;;;;;;5018360;28;20169;-88
2023/06/13 11:29:43;;;;;;;14.95;13.35;;;24.80;38.80;;;;;;5020124;28;20166;-89
2023/06/13 11:32:10;;;;;;;14.02;12.93;;;25.00;40.20;;;;;;5019490;28;20197;-87
2023/06/13 11:34:41;;;;;;;14.07;13.07;;;25.10;38.50;;;;;;5019369;28;20189;-88
2023/06/13 11:37:18;;;;;;;13.68;12.63;;;25.10;39.00;;;;;;5019096;28;20635;-88
2023/06/13 11:39:52;;;;;;;19.35;12.38;;;25.20;40.60;;;;;;5018518;28;20192;-88
2023/06/13 11:42:18;;;;;;;13.98;12.82;;;25.20;39.10;;;;;;5019826;28;20244;-88
2023/06/13 11:44:43;;;;;;;13.88;12.65;;;25.20;39.90;;;;;;5018540;28;20173;-88
2023/06/13 11:47:12;;;;;;;13.95;12.80;;;25.10;40.50;;;;;;5018383;28;20165;-89
2023/06/13 11:49:38;;;;;;;14.27;13.10;;;25.00;40.60;;;;;;5017252;28;20260;-88
2023/06/13 11:52:15;;;;;;;14.63;13.23;;;24.80;39.20;;;;;;5016784;28;20229;-88
2023/06/13 11:54:47;;;;;;;14.60;12.93;;;24.70;40.60;;;;;;5016962;28;20173;-89
2023/06/13 11:57:14;;;;;;;13.95;12.60;;;24.90;40.70;;;;;;5017203;28;20184;-88
2023/06/13 11:59:40;;;;;;;15.20;13.80;;;24.90;41.40;;;;;;5017276;28;20259;-88
2023/06/13 12:02:06;;;;;;;14.52;13.05;;;25.10;42.60;;;;;;5016094;28;20217;-88
2023/06/13 12:04:31;;;;;;;14.10;13.18;;;25.10;43.90;;;;;;5015869;28;20181;-90
2023/06/13 12:06:57;;;;;;;14.00;12.55;;;25.00;43.40;;;;;;5017293;28;20181;-88
2023/06/13 12:09:25;;;;;;;13.98;12.82;;;25.00;43.80;;;;;;5016051;28;20648;-88
2023/06/13 12:11:51;;;;;;;14.35;13.18;;;25.20;43.60;;;;;;5015697;28;20181;-88
2023/06/13 12:14:20;;;;;;;13.93;12.73;;;25.20;42.30;;;;;;5016361;28;20204;-88
2023/06/13 12:16:49;;;;;;;12.93;11.77;;;25.10;43.90;;;;;;5017166;28;20204;-88
2023/06/13 12:19:18;;;;;;;14.07;12.98;;;25.30;44.10;;;;;;5016960;28;20197;-88
2023/06/13 12:21:45;;;;;;;13.60;12.50;;;25.20;42.60;;;;;;5016168;28;20201;-87
2023/06/13 12:24:11;;;;;;;13.63;12.38;;;25.30;43.10;;;;;;5017762;28;20717;-88
2023/06/13 12:26:41;;;;;;;13.65;12.57;;;25.30;43.80;;;;;;5016374;28;20205;-87
2023/06/13 12:29:07;;;;;;;14.15;12.90;;;25.30;42.90;;;;;;5018159;28;20161;-87
2023/06/13 12:31:38;;;;;;;14.50;12.98;;;25.30;42.90;;;;;;5016219;28;20204;-87
2023/06/13 12:34:29;;;;;;;14.35;13.13;;;25.30;42.50;;;;;;5016107;28;20197;-89
2023/06/13 12:37:13;;;;;;;14.00;12.77;;;25.50;43.10;;;;;;5017100;28;20524;-87
2023/06/13 12:40:12;;;;;;;14.55;13.45;;;25.70;42.20;;;;;;5017957;28;20264;-87